createdAt,value
2023-03-20T06:58:50.526Z,35.80
2023-03-20T06:59:00.600Z,38.80
2023-03-20T06:59:10.624Z,39.90
2023-03-20T06:59:20.668Z,43.10
2023-03-20T06:59:30.775Z,44.00
2023-03-20T06:59:40.835Z,45.10
2023-03-20T06:59:50.874Z,46.30
2023-03-20T07:00:00.955Z,48.10
2023-03-20T07:00:10.976Z,48.80
2023-03-20T07:00:21.061Z,48.80
2023-03-20T07:00:31.182Z,48.50
2023-03-20T07:00:41.108Z,48.90
2023-03-20T07:00:51.122Z,50.20
2023-03-20T07:01:01.175Z,51.00
2023-03-20T07:01:11.187Z,52.60
2023-03-20T07:01:21.292Z,51.30
2023-03-20T07:01:31.357Z,50.60
2023-03-20T07:01:41.469Z,49.90
2023-03-20T07:01:51.536Z,50.00
2023-03-20T07:02:01.659Z,49.70
2023-03-20T07:02:11.883Z,49.20
2023-03-20T07:02:21.818Z,49.10
2023-03-20T07:02:31.968Z,50.00
2023-03-20T07:02:41.954Z,50.60
2023-03-20T07:02:51.976Z,50.20
2023-03-20T07:03:02.437Z,49.70
2023-03-20T07:03:12.109Z,51.20
2023-03-20T07:03:22.139Z,52.50
2023-03-20T07:03:32.234Z,53.00
2023-03-20T07:03:42.327Z,51.50
2023-03-20T07:03:52.403Z,50.70
2023-03-20T07:04:02.489Z,51.60
2023-03-20T07:04:12.539Z,51.30
2023-03-20T07:04:22.608Z,51.70
2023-03-20T07:04:32.651Z,50.20
2023-03-20T07:04:42.812Z,50.00
2023-03-20T07:04:52.898Z,49.90
2023-03-20T07:05:03.038Z,50.60
2023-03-20T07:05:12.978Z,49.70
2023-03-20T07:05:23.094Z,49.30
2023-03-20T07:05:33.150Z,48.40
2023-03-20T07:05:43.203Z,47.70
2023-03-20T07:05:53.274Z,46.70
2023-03-20T07:06:03.365Z,46.10
2023-03-20T07:06:13.428Z,46.30
2023-03-20T07:06:23.508Z,46.90
2023-03-20T07:06:33.566Z,47.10
2023-03-20T07:06:43.630Z,47.70
2023-03-20T07:06:53.698Z,48.10
2023-03-20T07:07:03.690Z,49.00
2023-03-20T07:07:13.809Z,49.00
2023-03-20T07:07:23.789Z,47.70
2023-03-20T07:07:33.790Z,46.50
2023-03-20T07:07:43.882Z,45.90
2023-03-20T07:07:53.891Z,46.80
2023-03-20T07:08:03.842Z,48.20
2023-03-20T07:08:13.940Z,48.80
2023-03-20T07:08:24.054Z,47.90
2023-03-20T07:08:35.264Z,46.90
2023-03-20T07:08:44.198Z,46.70
2023-03-20T07:08:54.301Z,45.80
2023-03-20T07:09:04.449Z,44.80
2023-03-20T07:09:14.517Z,44.80
2023-03-20T07:09:24.619Z,45.40
2023-03-20T07:09:34.692Z,44.30
2023-03-20T07:09:44.790Z,45.20
2023-03-20T07:09:54.902Z,45.00
2023-03-20T07:10:04.980Z,46.20
2023-03-20T07:10:15.141Z,44.50
2023-03-20T07:10:25.229Z,42.30
2023-03-20T07:10:35.311Z,41.70
2023-03-20T07:10:45.409Z,42.10
2023-03-20T07:10:55.510Z,43.50
2023-03-20T07:11:05.615Z,43.10
2023-03-20T07:11:15.571Z,43.10
2023-03-20T07:11:25.690Z,42.10
2023-03-20T07:11:35.776Z,41.20
2023-03-20T07:11:45.872Z,39.80
2023-03-20T07:11:55.947Z,40.00
2023-03-20T07:12:06.042Z,40.30
2023-03-20T07:12:16.137Z,40.40
2023-03-20T07:12:26.216Z,39.70
2023-03-20T07:12:36.281Z,39.20
2023-03-20T07:12:46.269Z,38.50
2023-03-20T07:12:56.341Z,39.20
2023-03-20T07:13:06.478Z,39.00
2023-03-20T07:13:16.629Z,38.90
2023-03-20T07:13:26.689Z,37.50
2023-03-20T07:13:36.680Z,37.40
2023-03-20T07:13:49.718Z,37.10
2023-03-20T07:13:56.862Z,36.80
2023-03-20T07:14:07.050Z,35.10
2023-03-20T07:14:17.106Z,35.20
2023-03-20T07:14:27.217Z,35.70
2023-03-20T07:14:37.325Z,35.80
2023-03-20T07:14:47.489Z,35.40
2023-03-20T07:14:57.561Z,34.40
2023-03-20T07:15:07.679Z,34.40
2023-03-20T07:15:17.752Z,33.50
2023-03-20T07:15:27.851Z,35.60
2023-03-20T07:15:38.134Z,36.30
2023-03-20T07:16:03.419Z,37.10
2023-03-20T07:16:04.560Z,35.60
2023-03-20T07:16:10.038Z,35.60
2023-03-20T07:16:20.025Z,35.10
2023-03-20T07:16:30.061Z,35.30
2023-03-20T07:16:40.161Z,34.50
2023-03-20T07:16:50.313Z,35.20
2023-03-20T07:17:00.481Z,35.50
2023-03-20T07:17:10.449Z,36.80
2023-03-20T07:17:20.569Z,38.10
2023-03-20T07:17:30.660Z,38.90
2023-03-20T07:17:40.803Z,38.30
2023-03-20T07:17:50.907Z,37.20
2023-03-20T07:18:01.074Z,37.00
2023-03-20T07:18:11.011Z,37.20
2023-03-20T07:18:21.091Z,37.40
2023-03-20T07:18:31.187Z,37.90
2023-03-20T07:18:41.290Z,39.70
2023-03-20T07:18:51.378Z,39.40
2023-03-20T07:19:01.481Z,37.80
2023-03-20T07:19:11.624Z,34.50
2023-03-20T07:19:21.609Z,34.70
2023-03-20T07:19:31.669Z,35.10
2023-03-20T07:19:41.818Z,35.60
2023-03-20T07:19:51.912Z,34.80
2023-03-20T07:20:02.000Z,35.00
2023-03-20T07:20:12.081Z,35.00
2023-03-20T07:20:22.171Z,34.60
2023-03-20T07:20:32.251Z,34.20
2023-03-20T07:20:42.335Z,33.50
2023-03-20T07:20:52.425Z,33.60
2023-03-20T07:21:02.416Z,33.50
2023-03-20T07:21:12.498Z,33.70
2023-03-20T07:21:22.598Z,33.10
2023-03-20T07:21:32.690Z,32.50
2023-03-20T07:21:42.781Z,31.60
2023-03-20T07:21:52.859Z,32.30
2023-03-20T07:22:02.961Z,31.20
2023-03-20T07:22:13.031Z,32.50
2023-03-20T07:22:23.142Z,31.20
2023-03-20T07:22:33.240Z,32.60
2023-03-20T07:22:43.358Z,32.10
2023-03-20T07:22:53.448Z,33.60
2023-03-20T07:23:03.538Z,33.50
2023-03-20T07:23:13.642Z,34.00
2023-03-20T07:23:23.719Z,32.80
2023-03-20T07:23:33.823Z,32.70
2023-03-20T07:23:43.918Z,31.40
2023-03-20T07:23:54.041Z,30.90
2023-03-20T07:24:04.123Z,30.20
2023-03-20T07:24:14.186Z,30.20
2023-03-20T07:24:24.338Z,30.00
2023-03-20T07:24:34.451Z,30.90
2023-03-20T07:24:47.172Z,30.80
2023-03-20T07:24:54.668Z,30.70
2023-03-20T07:25:04.760Z,29.60
2023-03-20T07:25:14.838Z,30.20
2023-03-20T07:25:39.280Z,30.50
2023-03-20T07:25:42.945Z,30.40
2023-03-20T07:25:47.139Z,30.90
2023-03-20T07:25:56.982Z,30.40
2023-03-20T07:26:07.112Z,31.90
2023-03-20T07:26:17.085Z,31.70
2023-03-20T07:26:27.139Z,31.90
2023-03-20T07:26:37.265Z,32.00
2023-03-20T07:26:47.339Z,32.50
2023-03-20T07:26:57.471Z,32.80
2023-03-20T07:27:07.541Z,31.80
2023-03-20T07:27:17.670Z,31.10
2023-03-20T07:27:27.788Z,30.50
2023-03-20T07:27:37.889Z,31.40
2023-03-20T07:27:47.971Z,31.70
2023-03-20T07:27:58.073Z,32.70
2023-03-20T07:28:08.149Z,32.30
2023-03-20T07:28:18.297Z,32.40
2023-03-20T07:28:28.467Z,31.80
2023-03-20T07:28:38.553Z,33.40
2023-03-20T07:28:48.663Z,33.90
2023-03-20T07:28:58.756Z,34.50
2023-03-20T07:29:08.853Z,34.10
2023-03-20T07:29:18.929Z,33.70
2023-03-20T07:29:29.023Z,33.60
2023-03-20T07:29:39.148Z,32.50
2023-03-20T07:29:49.248Z,32.90
2023-03-20T07:29:59.337Z,33.30
2023-03-20T07:30:09.314Z,33.70
2023-03-20T07:30:19.409Z,32.80
2023-03-20T07:30:29.479Z,32.90
2023-03-20T07:30:39.587Z,33.30
2023-03-20T07:30:49.657Z,34.70
2023-03-20T07:30:59.838Z,34.40
2023-03-20T07:31:09.791Z,34.70
2023-03-20T07:31:19.905Z,33.40
2023-03-20T07:31:30.009Z,32.80
2023-03-20T07:31:39.947Z,31.80
2023-03-20T07:31:50.064Z,32.10
2023-03-20T07:31:59.999Z,31.70
2023-03-20T07:32:10.079Z,31.90
2023-03-20T07:32:20.193Z,33.10
2023-03-20T07:32:30.318Z,33.20
2023-03-20T07:32:40.426Z,33.80
2023-03-20T07:32:50.556Z,32.50
2023-03-20T07:33:00.696Z,33.40
2023-03-20T07:33:10.824Z,32.60
2023-03-20T07:33:20.838Z,33.40
2023-03-20T07:33:30.765Z,32.10
2023-03-20T07:33:40.770Z,32.20
2023-03-20T07:33:50.865Z,32.30
2023-03-20T07:34:00.994Z,33.40
2023-03-20T07:34:11.161Z,34.00
2023-03-20T07:34:21.145Z,34.80
2023-03-20T07:34:31.250Z,35.50
2023-03-20T07:34:41.322Z,35.80
2023-03-20T07:34:51.488Z,36.30
2023-03-20T07:35:01.598Z,36.30
2023-03-20T07:35:11.701Z,36.60
2023-03-20T07:35:21.834Z,34.10
2023-03-20T07:35:31.890Z,33.50
2023-03-20T07:35:41.797Z,32.80
2023-03-20T07:35:51.961Z,34.70
2023-03-20T07:36:02.146Z,35.50
2023-03-20T07:36:12.045Z,36.00
2023-03-20T07:36:22.158Z,35.60
2023-03-20T07:36:32.250Z,34.30
2023-03-20T07:36:42.370Z,33.80
2023-03-20T07:36:52.435Z,33.90
2023-03-20T07:37:02.425Z,34.00
2023-03-20T07:37:12.488Z,34.00
2023-03-20T07:37:22.582Z,33.60
2023-03-20T07:37:32.558Z,33.50
2023-03-20T07:37:43.325Z,33.40
2023-03-20T07:37:52.689Z,33.30
2023-03-20T07:38:02.804Z,33.40
2023-03-20T07:38:12.888Z,33.70
2023-03-20T07:38:22.988Z,33.50
2023-03-20T07:38:33.089Z,33.50
2023-03-20T07:38:43.108Z,33.20
2023-03-20T07:38:53.146Z,34.70
2023-03-20T07:39:03.189Z,34.80
2023-03-20T07:39:13.261Z,34.50
2023-03-20T07:39:23.301Z,33.90
2023-03-20T07:39:33.357Z,34.60
2023-03-20T07:39:43.399Z,35.50
2023-03-20T07:39:53.448Z,38.70
2023-03-20T07:40:03.537Z,41.40
2023-03-20T07:40:13.586Z,41.00
2023-03-20T07:40:23.616Z,37.90
2023-03-20T07:40:33.672Z,34.80
2023-03-20T07:40:43.726Z,35.60
2023-03-20T07:40:53.829Z,35.30
2023-03-20T07:41:03.908Z,36.60
2023-03-20T07:41:14.027Z,37.30
2023-03-20T07:41:24.110Z,36.60
2023-03-20T07:41:34.174Z,35.30
2023-03-20T07:41:44.307Z,34.50
2023-03-20T07:41:54.366Z,35.20
2023-03-20T07:42:04.513Z,35.70
2023-03-20T07:42:14.584Z,36.50
2023-03-20T07:42:24.670Z,35.50
2023-03-20T07:42:34.735Z,34.40
2023-03-20T07:42:44.849Z,34.20
2023-03-20T07:42:54.942Z,34.90
2023-03-20T07:43:05.014Z,34.90
2023-03-20T07:43:15.146Z,34.50
2023-03-20T07:43:25.263Z,34.00
2023-03-20T07:43:35.384Z,34.40
2023-03-20T07:43:45.488Z,33.60
2023-03-20T07:43:55.592Z,34.60
2023-03-20T07:44:05.653Z,33.60
2023-03-20T07:44:15.754Z,34.20
2023-03-20T07:44:25.867Z,33.00
2023-03-20T07:44:35.964Z,33.30
2023-03-20T07:44:46.045Z,33.00
2023-03-20T07:44:56.148Z,33.70
2023-03-20T07:45:06.247Z,34.10
2023-03-20T07:45:16.355Z,33.70
2023-03-20T07:45:26.463Z,34.00
2023-03-20T07:45:36.889Z,35.10
2023-03-20T07:45:46.762Z,36.00
2023-03-20T07:45:56.720Z,35.50
2023-03-20T07:46:06.730Z,34.40
2023-03-20T07:46:16.860Z,33.80
2023-03-20T07:46:26.874Z,34.60
2023-03-20T07:46:36.979Z,34.60
2023-03-20T07:46:46.963Z,35.30
2023-03-20T07:46:57.042Z,34.80
2023-03-20T07:47:07.147Z,33.20
2023-03-20T07:47:17.115Z,32.60
2023-03-20T07:47:27.225Z,32.40
2023-03-20T07:47:37.329Z,33.90
2023-03-20T07:47:47.539Z,33.30
2023-03-20T07:47:57.516Z,32.70
2023-03-20T07:48:07.473Z,33.10
2023-03-20T07:48:17.573Z,33.50
2023-03-20T07:48:27.683Z,33.80
2023-03-20T07:48:37.777Z,33.10
2023-03-20T07:48:47.868Z,33.30
2023-03-20T07:48:57.980Z,33.80
2023-03-20T07:49:08.035Z,33.90
2023-03-20T07:49:18.067Z,33.50
2023-03-20T07:49:28.152Z,33.00
2023-03-20T07:49:38.247Z,33.90
2023-03-20T07:49:48.343Z,34.70
2023-03-20T07:49:58.414Z,34.80
2023-03-20T07:50:08.538Z,33.30
2023-03-20T07:50:18.592Z,32.00
2023-03-20T07:50:28.779Z,31.10
2023-03-20T07:50:38.682Z,31.80
2023-03-20T07:50:48.801Z,31.70
2023-03-20T07:50:58.926Z,32.60
2023-03-20T07:51:08.958Z,32.50
2023-03-20T07:51:19.003Z,33.20
2023-03-20T07:51:29.093Z,32.10
2023-03-20T07:51:39.213Z,31.30
2023-03-20T07:51:49.294Z,31.00
2023-03-20T07:51:59.406Z,31.30
2023-03-20T07:52:09.520Z,31.20
2023-03-20T07:52:19.511Z,31.10
2023-03-20T07:52:29.594Z,31.80
2023-03-20T07:52:39.749Z,32.40
2023-03-20T07:52:49.756Z,32.40
2023-03-20T07:52:59.902Z,31.50
2023-03-20T07:53:10.000Z,31.50
2023-03-20T07:53:20.094Z,32.10
2023-03-20T07:53:30.258Z,32.60
2023-03-20T07:53:40.182Z,32.10
2023-03-20T07:53:50.331Z,31.20
2023-03-20T07:54:00.461Z,30.60
2023-03-20T07:54:10.409Z,30.90
2023-03-20T07:54:20.580Z,31.70
2023-03-20T07:54:30.493Z,32.00
2023-03-20T07:54:40.581Z,32.50
2023-03-20T07:54:50.689Z,32.50
2023-03-20T07:55:00.805Z,33.00
2023-03-20T07:55:10.912Z,32.70
2023-03-20T07:55:20.991Z,32.10
2023-03-20T07:55:31.109Z,30.40
2023-03-20T07:55:41.193Z,30.10
2023-03-20T07:55:51.317Z,30.10
2023-03-20T07:56:01.420Z,32.00
2023-03-20T07:56:11.539Z,32.20
2023-03-20T07:56:21.622Z,31.90
2023-03-20T07:56:31.758Z,31.40
2023-03-20T07:56:41.820Z,32.10
2023-03-20T07:56:52.031Z,33.10
2023-03-20T07:57:01.970Z,33.00
2023-03-20T07:57:12.029Z,31.60
2023-03-20T07:57:22.104Z,31.70
2023-03-20T07:57:32.212Z,32.60
2023-03-20T07:57:42.297Z,33.70
2023-03-20T07:57:52.351Z,32.70
2023-03-20T07:58:02.442Z,32.30
2023-03-20T07:58:12.489Z,31.40
2023-03-20T07:58:22.570Z,32.00
2023-03-20T07:58:32.663Z,31.40
2023-03-20T07:58:42.740Z,32.70
2023-03-20T07:58:52.832Z,32.60
2023-03-20T07:59:02.893Z,32.50
2023-03-20T07:59:12.987Z,31.50
2023-03-20T07:59:23.051Z,31.50
2023-03-20T07:59:33.154Z,32.30
2023-03-20T07:59:43.208Z,32.40
2023-03-20T07:59:53.287Z,33.50
2023-03-20T08:00:03.324Z,33.40
2023-03-20T08:00:13.400Z,32.80
2023-03-20T08:00:23.518Z,31.30
2023-03-20T08:00:33.597Z,31.30
2023-03-20T08:00:43.720Z,31.70
2023-03-20T08:00:53.800Z,32.70
2023-03-20T08:01:03.879Z,32.10
2023-03-20T08:01:13.950Z,32.20
2023-03-20T08:01:24.024Z,31.80
2023-03-20T08:01:34.128Z,32.20
2023-03-20T08:01:44.188Z,32.00
2023-03-20T08:01:54.252Z,31.90
2023-03-20T08:02:04.326Z,32.60
2023-03-20T08:02:14.426Z,31.90
2023-03-20T08:02:24.465Z,31.90
2023-03-20T08:02:34.569Z,31.10
2023-03-20T08:02:44.696Z,30.60
2023-03-20T08:02:54.729Z,30.40
2023-03-20T08:03:04.823Z,31.00
2023-03-20T08:03:14.966Z,32.00
2023-03-20T08:03:25.013Z,32.40
2023-03-20T08:03:35.190Z,32.20
2023-03-20T08:03:45.281Z,32.70
2023-03-20T08:03:55.451Z,33.20
2023-03-20T08:04:05.570Z,33.00
2023-03-20T08:04:15.549Z,32.60
2023-03-20T08:04:25.563Z,32.30
2023-03-20T08:04:35.574Z,32.70
2023-03-20T08:04:45.665Z,32.60
2023-03-20T08:04:55.664Z,33.40
2023-03-20T08:05:05.738Z,33.40
2023-03-20T08:05:15.749Z,33.60
2023-03-20T08:05:25.872Z,32.50
2023-03-20T08:05:36.208Z,32.90
2023-03-20T08:05:47.598Z,32.90
2023-03-20T08:05:56.029Z,33.00
2023-03-20T08:06:06.168Z,33.30
2023-03-20T08:06:16.177Z,34.20
2023-03-20T08:06:26.259Z,34.40
2023-03-20T08:06:36.354Z,34.40
2023-03-20T08:06:46.336Z,33.60
2023-03-20T08:06:56.368Z,33.60
2023-03-20T08:07:06.389Z,33.50
2023-03-20T08:07:16.550Z,34.00
2023-03-20T08:07:26.494Z,33.90
2023-03-20T08:07:36.614Z,34.70
2023-03-20T08:07:46.714Z,35.60
2023-03-20T08:07:56.865Z,36.90
2023-03-20T08:08:07.003Z,36.00
2023-03-20T08:08:17.018Z,35.40
2023-03-20T08:08:27.032Z,34.70
2023-03-20T08:08:37.118Z,34.20
2023-03-20T08:08:47.186Z,34.20
2023-03-20T08:08:57.275Z,34.10
2023-03-20T08:09:07.397Z,34.80
2023-03-20T08:09:17.319Z,35.10
2023-03-20T08:09:27.411Z,36.50
2023-03-20T08:09:37.467Z,37.60
2023-03-20T08:09:47.548Z,38.90
2023-03-20T08:09:57.619Z,37.30
2023-03-20T08:10:07.685Z,37.20
2023-03-20T08:10:17.770Z,35.50
2023-03-20T08:10:27.889Z,36.80
2023-03-20T08:10:37.985Z,36.50
2023-03-20T08:10:48.077Z,37.60
2023-03-20T08:10:58.203Z,36.60
2023-03-20T08:11:08.319Z,36.90
2023-03-20T08:11:18.287Z,37.30
2023-03-20T08:11:28.419Z,37.10
2023-03-20T08:11:38.519Z,36.40
2023-03-20T08:11:48.609Z,35.80
2023-03-20T08:11:58.701Z,37.40
2023-03-20T08:12:08.791Z,37.90
2023-03-20T08:12:18.919Z,36.90
2023-03-20T08:12:29.011Z,35.90
2023-03-20T08:12:39.119Z,36.00
2023-03-20T08:12:49.190Z,38.00
2023-03-20T08:12:59.291Z,38.10
2023-03-20T08:13:09.388Z,37.50
2023-03-20T08:13:19.490Z,36.30
2023-03-20T08:13:29.520Z,37.10
2023-03-20T08:13:39.658Z,38.00
2023-03-20T08:13:49.770Z,38.60
2023-03-20T08:13:59.878Z,37.50
2023-03-20T08:14:09.970Z,37.70
2023-03-20T08:14:20.096Z,37.10
2023-03-20T08:14:30.195Z,37.90
2023-03-20T08:14:40.340Z,36.40
2023-03-20T08:14:50.401Z,36.50
2023-03-20T08:15:00.546Z,35.60
2023-03-20T08:15:10.635Z,35.40
2023-03-20T08:15:20.746Z,36.00
2023-03-20T08:15:30.815Z,36.20
2023-03-20T08:15:40.908Z,36.90
2023-03-20T08:15:51.022Z,37.20
2023-03-20T08:16:01.201Z,37.00
2023-03-20T08:16:11.153Z,36.40
2023-03-20T08:16:21.304Z,35.60
2023-03-20T08:16:31.254Z,35.10
2023-03-20T08:16:41.409Z,33.80
2023-03-20T08:17:06.245Z,33.50
2023-03-20T08:17:14.516Z,33.20
2023-03-20T08:17:16.084Z,32.80
2023-03-20T08:17:23.515Z,32.50
2023-03-20T08:17:33.525Z,32.20
2023-03-20T08:17:43.626Z,31.90
2023-03-20T08:17:53.700Z,32.70
2023-03-20T08:18:03.803Z,34.00
2023-03-20T08:18:13.923Z,33.50
2023-03-20T08:18:24.014Z,34.40
2023-03-20T08:18:34.138Z,34.50
2023-03-20T08:18:44.200Z,35.80
2023-03-20T08:18:54.325Z,34.60
2023-03-20T08:19:04.441Z,34.40
2023-03-20T08:19:14.567Z,33.90
2023-03-20T08:19:24.630Z,33.60
2023-03-20T08:19:34.736Z,33.30
2023-03-20T08:19:44.823Z,33.30
2023-03-20T08:19:54.924Z,33.30
2023-03-20T08:20:04.993Z,32.40
2023-03-20T08:20:15.092Z,32.90
2023-03-20T08:20:25.194Z,32.90
2023-03-20T08:20:35.291Z,40.90
2023-03-20T08:20:45.391Z,43.90
2023-03-20T08:20:55.527Z,46.00
2023-03-20T08:21:05.644Z,39.60
2023-03-20T08:21:15.736Z,38.10
2023-03-20T08:21:25.827Z,36.70
2023-03-20T08:21:35.956Z,36.90
2023-03-20T08:21:46.103Z,35.50
2023-03-20T08:21:56.066Z,34.90
2023-03-20T08:22:05.985Z,33.30
2023-03-20T08:22:16.151Z,34.60
2023-03-20T08:22:26.201Z,35.80
2023-03-20T08:22:36.301Z,37.70
2023-03-20T08:22:46.421Z,36.70
2023-03-20T08:22:56.531Z,35.40
2023-03-20T08:23:06.624Z,33.50
2023-03-20T08:23:18.199Z,32.80
2023-03-20T08:23:26.761Z,32.00
2023-03-20T08:23:36.907Z,30.60
2023-03-20T08:23:46.902Z,30.40
2023-03-20T08:23:56.974Z,30.20
2023-03-20T08:24:07.055Z,32.10
2023-03-20T08:24:17.194Z,32.70
2023-03-20T08:24:27.261Z,33.70
2023-03-20T08:24:37.365Z,31.80
2023-03-20T08:24:47.446Z,31.20
2023-03-20T08:24:57.542Z,30.40
2023-03-20T08:25:07.612Z,31.20
2023-03-20T08:25:17.721Z,31.10
2023-03-20T08:25:27.803Z,31.20
2023-03-20T08:25:38.345Z,30.50
2023-03-20T08:25:47.892Z,29.80
2023-03-20T08:25:57.960Z,29.60
2023-03-20T08:26:08.146Z,30.80
2023-03-20T08:26:18.222Z,30.70
2023-03-20T08:26:28.359Z,31.50
2023-03-20T08:26:38.432Z,30.60
2023-03-20T08:26:48.543Z,30.60
2023-03-20T08:26:58.620Z,30.10
2023-03-20T08:27:08.757Z,30.30
2023-03-20T08:27:18.770Z,30.10
2023-03-20T08:27:28.703Z,30.00
2023-03-20T08:27:38.938Z,29.60
2023-03-20T08:27:48.856Z,29.70
2023-03-20T08:27:58.943Z,29.70
2023-03-20T08:28:09.025Z,30.90
2023-03-20T08:28:19.097Z,30.20
2023-03-20T08:28:46.291Z,29.00
2023-03-20T08:28:47.453Z,28.40
2023-03-20T08:28:52.478Z,29.40
2023-03-20T08:29:01.296Z,29.20
2023-03-20T08:29:11.417Z,29.20
2023-03-20T08:29:21.495Z,28.40
2023-03-20T08:29:31.582Z,28.70
2023-03-20T08:29:41.707Z,29.40
2023-03-20T08:29:51.815Z,30.60
2023-03-20T08:30:01.949Z,32.00
2023-03-20T08:30:12.065Z,30.90
2023-03-20T08:30:22.177Z,30.10
2023-03-20T08:30:32.369Z,29.10
2023-03-20T08:30:42.338Z,29.30
2023-03-20T08:30:52.430Z,29.20
2023-03-20T08:31:02.594Z,28.70
2023-03-20T08:31:12.715Z,29.40
2023-03-20T08:31:22.832Z,29.40
2023-03-20T08:31:32.943Z,29.90
2023-03-20T08:31:43.036Z,29.60
2023-03-20T08:31:53.118Z,29.10
2023-03-20T08:32:03.204Z,29.30
2023-03-20T08:32:13.274Z,29.30
2023-03-20T08:32:23.365Z,30.00
2023-03-20T08:32:33.550Z,29.20
2023-03-20T08:32:43.552Z,28.70
2023-03-20T08:32:53.648Z,28.70
2023-03-20T08:33:03.841Z,29.50
2023-03-20T08:33:14.021Z,29.80
2023-03-20T08:33:23.952Z,28.60
2023-03-20T08:33:34.027Z,28.60
2023-03-20T08:33:44.121Z,28.00
2023-03-20T08:33:54.245Z,28.60
2023-03-20T08:34:04.355Z,28.80
2023-03-20T08:34:14.455Z,28.50
2023-03-20T08:34:24.548Z,27.70
2023-03-20T08:34:34.648Z,27.40
2023-03-20T08:34:44.712Z,28.20
2023-03-20T08:34:54.813Z,28.40
2023-03-20T08:35:04.940Z,27.10
2023-03-20T08:35:31.843Z,26.30
2023-03-20T08:35:33.283Z,26.10
2023-03-20T08:35:36.967Z,26.80
2023-03-20T08:35:47.533Z,27.10
2023-03-20T08:35:57.234Z,26.40
2023-03-20T08:36:07.393Z,26.80
2023-03-20T08:36:17.449Z,27.00
2023-03-20T08:36:27.444Z,27.30
2023-03-20T08:36:37.387Z,27.90
2023-03-20T08:36:47.497Z,27.50
2023-03-20T08:36:57.593Z,57.90
2023-03-20T08:37:07.745Z,120.10
2023-03-20T08:37:17.764Z,261.80
2023-03-20T08:37:27.853Z,422.20
2023-03-20T08:37:37.971Z,471.30
2023-03-20T08:37:48.082Z,422.70
2023-03-20T08:37:58.172Z,381.30
2023-03-20T08:38:08.327Z,448.10
2023-03-20T08:38:18.421Z,512.60
2023-03-20T08:38:28.501Z,501.60
2023-03-20T08:38:38.621Z,450.50
2023-03-20T08:38:48.739Z,493.40
2023-03-20T08:38:58.734Z,459.40
2023-03-20T08:39:08.798Z,482.70
2023-03-20T08:39:18.916Z,461.00
2023-03-20T08:39:29.026Z,467.20
2023-03-20T08:39:39.181Z,435.40
2023-03-20T08:39:49.295Z,303.00
2023-03-20T08:39:59.313Z,419.90
2023-03-20T08:40:09.453Z,502.00
2023-03-20T08:40:19.696Z,587.90
2023-03-20T08:40:29.625Z,377.70
2023-03-20T08:40:39.612Z,235.10
2023-03-20T08:40:49.718Z,119.80
2023-03-20T08:40:59.836Z,87.30
2023-03-20T08:41:10.018Z,65.40
2023-03-20T08:41:19.972Z,50.00
2023-03-20T08:41:30.063Z,36.70
2023-03-20T08:41:40.185Z,31.10
2023-03-20T08:41:50.324Z,28.20
2023-03-20T08:42:01.218Z,26.30
2023-03-20T08:42:10.473Z,26.40
2023-03-20T08:42:20.562Z,26.90
2023-03-20T08:42:30.684Z,27.20
2023-03-20T08:42:40.773Z,27.20
2023-03-20T08:42:50.882Z,27.50
2023-03-20T08:43:00.963Z,28.30
2023-03-20T08:43:11.118Z,27.90
2023-03-20T08:43:21.202Z,27.00
2023-03-20T08:43:31.332Z,26.20
2023-03-20T08:43:41.460Z,26.40
2023-03-20T08:43:52.098Z,27.00
2023-03-20T08:44:01.592Z,27.30
2023-03-20T08:44:11.701Z,26.90
2023-03-20T08:44:21.780Z,26.10
2023-03-20T08:44:31.902Z,25.70
2023-03-20T08:44:42.021Z,26.30
2023-03-20T08:44:52.110Z,26.90
2023-03-20T08:45:02.217Z,26.90
2023-03-20T08:45:12.323Z,26.90
2023-03-20T08:45:22.408Z,26.30
2023-03-20T08:45:32.502Z,26.90
2023-03-20T08:45:42.652Z,27.50
2023-03-20T08:45:52.765Z,28.00
2023-03-20T08:46:02.926Z,27.60
2023-03-20T08:46:13.117Z,27.10
2023-03-20T08:46:23.028Z,26.60
2023-03-20T08:46:33.013Z,26.90
2023-03-20T08:46:43.101Z,27.00
2023-03-20T08:46:53.179Z,26.70
2023-03-20T08:47:03.478Z,26.30
2023-03-20T08:47:13.463Z,26.30
2023-03-20T08:47:23.549Z,26.80
2023-03-20T08:47:33.646Z,26.90
2023-03-20T08:47:43.737Z,27.00
2023-03-20T08:47:53.875Z,27.30
2023-03-20T08:48:03.971Z,28.20
2023-03-20T08:48:14.153Z,26.80
2023-03-20T08:48:24.248Z,26.40
2023-03-20T08:48:34.368Z,26.60
2023-03-20T08:48:44.588Z,27.30
2023-03-20T08:48:54.543Z,26.60
2023-03-20T08:49:04.609Z,26.20
2023-03-20T08:49:14.721Z,26.10
2023-03-20T08:49:24.808Z,26.00
2023-03-20T08:49:34.908Z,26.40
2023-03-20T08:49:44.999Z,25.70
2023-03-20T08:49:55.139Z,25.50
2023-03-20T08:50:05.254Z,25.70
2023-03-20T08:50:15.365Z,25.60
2023-03-20T08:50:25.514Z,26.40
2023-03-20T08:50:35.590Z,25.20
2023-03-20T08:50:45.690Z,25.30
2023-03-20T08:50:55.811Z,24.90
2023-03-20T08:51:05.912Z,25.10
2023-03-20T08:51:16.047Z,25.90
2023-03-20T08:51:26.189Z,25.40
2023-03-20T08:51:36.336Z,25.10
2023-03-20T08:51:46.429Z,24.50
2023-03-20T08:51:56.567Z,25.40
2023-03-20T08:52:06.705Z,25.70
2023-03-20T08:52:16.768Z,26.70
2023-03-20T08:52:26.962Z,26.20
2023-03-20T08:52:36.970Z,26.20
2023-03-20T08:52:47.217Z,25.40
2023-03-20T08:52:57.157Z,24.50
2023-03-20T08:53:07.265Z,23.80
2023-03-20T08:53:17.383Z,23.80
2023-03-20T08:53:27.364Z,23.50
2023-03-20T08:53:37.485Z,23.70
2023-03-20T08:53:47.599Z,23.80
2023-03-20T08:53:57.719Z,24.60
2023-03-20T08:54:07.840Z,24.70
2023-03-20T08:54:17.954Z,24.60
2023-03-20T08:54:28.113Z,25.20
2023-03-20T08:54:38.099Z,25.80
2023-03-20T08:54:48.170Z,25.40
2023-03-20T08:54:58.259Z,24.90
2023-03-20T08:55:08.354Z,24.80
2023-03-20T08:55:18.456Z,25.60
2023-03-20T08:55:28.591Z,24.80
2023-03-20T08:55:38.953Z,24.80
2023-03-20T08:55:48.742Z,23.50
2023-03-20T08:55:58.816Z,23.60
2023-03-20T08:56:08.927Z,24.00
2023-03-20T08:56:19.048Z,25.10
2023-03-20T08:56:28.995Z,25.20
2023-03-20T08:56:39.094Z,25.50
2023-03-20T08:56:49.251Z,25.10
2023-03-20T08:56:59.155Z,25.30
2023-03-20T08:57:09.367Z,25.10
2023-03-20T08:57:19.433Z,25.30
2023-03-20T08:57:29.759Z,24.80
2023-03-20T08:57:39.869Z,24.90
2023-03-20T08:57:49.901Z,24.80
2023-03-20T08:57:59.887Z,25.50
2023-03-20T08:58:09.985Z,24.20
2023-03-20T08:58:20.080Z,23.50
2023-03-20T08:58:30.084Z,23.00
2023-03-20T08:58:40.202Z,24.00
2023-03-20T08:58:50.335Z,24.30
2023-03-20T08:59:00.483Z,25.10
2023-03-20T08:59:10.598Z,24.00
2023-03-20T08:59:20.725Z,24.30
2023-03-20T08:59:30.816Z,23.50
2023-03-20T08:59:40.990Z,24.30
2023-03-20T08:59:51.055Z,24.60
2023-03-20T09:00:01.194Z,23.40
2023-03-20T09:00:11.276Z,22.50
2023-03-20T09:00:21.402Z,22.00
2023-03-20T09:00:31.501Z,23.40
2023-03-20T09:00:41.651Z,24.10
2023-03-20T09:00:51.729Z,24.70
2023-03-20T09:01:01.889Z,24.20
2023-03-20T09:01:11.798Z,24.20
2023-03-20T09:01:21.931Z,24.20
2023-03-20T09:01:46.239Z,23.50
2023-03-20T09:01:49.725Z,22.70
2023-03-20T09:01:54.053Z,23.00
2023-03-20T09:02:04.013Z,23.30
2023-03-20T09:02:14.059Z,23.10
2023-03-20T09:02:24.218Z,23.40
2023-03-20T09:02:34.249Z,23.20
2023-03-20T09:02:44.215Z,23.50
2023-03-20T09:02:54.335Z,22.90
2023-03-20T09:03:04.459Z,23.00
2023-03-20T09:03:14.464Z,23.00
2023-03-20T09:03:24.493Z,23.10
2023-03-20T09:03:34.578Z,23.20
2023-03-20T09:03:44.754Z,23.70
2023-03-20T09:03:54.881Z,23.90
2023-03-20T09:04:05.006Z,23.20
2023-03-20T09:04:15.107Z,23.50
2023-03-20T09:04:25.287Z,23.80
2023-03-20T09:04:35.285Z,23.80
2023-03-20T09:04:45.428Z,22.30
2023-03-20T09:04:55.540Z,21.70
2023-03-20T09:05:05.702Z,22.60
2023-03-20T09:05:15.774Z,22.80
2023-03-20T09:05:25.898Z,23.70
2023-03-20T09:05:36.280Z,22.90
2023-03-20T09:05:46.120Z,22.20
2023-03-20T09:05:56.261Z,21.10
2023-03-20T09:06:06.359Z,21.30
2023-03-20T09:06:16.497Z,21.80
2023-03-20T09:06:26.606Z,21.60
2023-03-20T09:06:36.781Z,21.80
2023-03-20T09:06:46.913Z,22.20
2023-03-20T09:06:56.867Z,21.80
2023-03-20T09:07:06.956Z,22.40
2023-03-20T09:07:17.065Z,22.30
2023-03-20T09:07:27.221Z,23.20
2023-03-20T09:07:37.186Z,22.30
2023-03-20T09:07:47.274Z,22.70
2023-03-20T09:07:57.404Z,21.80
2023-03-20T09:08:07.543Z,21.90
2023-03-20T09:08:17.695Z,21.60
2023-03-20T09:08:27.861Z,21.90
2023-03-20T09:08:37.788Z,22.30